createdAt,value
2022-11-22T00:01:25.417Z,102.57
2022-11-22T00:03:53.651Z,99.07
2022-11-22T00:06:21.678Z,98.97
2022-11-22T00:08:51.430Z,97.20
2022-11-22T00:11:19.631Z,101.63
2022-11-22T00:13:47.962Z,93.60
2022-11-22T00:16:16.244Z,93.78
2022-11-22T00:18:44.547Z,91.82
2022-11-22T00:21:12.611Z,88.72
2022-11-22T00:23:40.950Z,81.22
2022-11-22T00:26:12.369Z,81.65
2022-11-22T00:28:40.992Z,82.53
2022-11-22T00:31:08.961Z,81.53
2022-11-22T00:33:37.264Z,81.40
2022-11-22T00:36:05.838Z,76.13
2022-11-22T00:38:34.246Z,79.75
2022-11-22T00:41:02.433Z,79.55
2022-11-22T00:43:32.607Z,76.25
2022-11-22T00:46:00.840Z,66.03
2022-11-22T00:48:29.581Z,66.82
2022-11-22T00:50:57.606Z,67.13
2022-11-22T00:53:26.025Z,62.10
2022-11-22T00:55:54.159Z,66.20
2022-11-22T00:58:22.488Z,60.03
2022-11-22T01:00:56.577Z,64.35
2022-11-22T01:03:25.285Z,66.82
2022-11-22T01:05:53.305Z,61.85
2022-11-22T01:08:21.698Z,63.17
2022-11-22T01:10:49.767Z,67.85
2022-11-22T01:13:18.128Z,64.40
2022-11-22T01:15:46.240Z,73.13
2022-11-22T01:18:16.143Z,70.13
2022-11-22T01:20:44.188Z,79.07
2022-11-22T01:23:12.625Z,72.90
2022-11-22T01:25:43.865Z,77.93
2022-11-22T01:28:12.449Z,74.93
2022-11-22T01:30:42.018Z,79.13
2022-11-22T01:33:10.750Z,78.97
2022-11-22T01:35:40.102Z,70.88
2022-11-22T01:38:08.603Z,70.18
2022-11-22T01:40:36.901Z,72.93
2022-11-22T01:43:18.159Z,75.72
2022-11-22T01:45:52.021Z,76.53
2022-11-22T01:48:36.856Z,73.38
2022-11-22T01:51:08.750Z,70.00
2022-11-22T01:53:38.858Z,83.00
2022-11-22T01:56:10.284Z,76.25
2022-11-22T01:58:39.148Z,71.38
2022-11-22T02:01:07.981Z,71.65
2022-11-22T02:03:38.857Z,78.70
2022-11-22T02:06:08.827Z,81.07
2022-11-22T02:08:41.613Z,79.10
2022-11-22T02:11:10.925Z,71.20
2022-11-22T02:13:42.047Z,74.38
2022-11-22T02:16:10.879Z,83.47
2022-11-22T02:18:39.682Z,86.72
2022-11-22T02:21:09.240Z,82.57
2022-11-22T02:23:47.227Z,80.82
2022-11-22T02:26:16.656Z,87.72
2022-11-22T02:28:45.125Z,89.90
2022-11-22T02:31:34.746Z,85.78
2022-11-22T02:34:03.398Z,102.85
2022-11-22T02:36:34.828Z,88.45
2022-11-22T02:39:03.437Z,79.05
2022-11-22T02:41:33.278Z,83.97
2022-11-22T02:44:01.685Z,76.90
2022-11-22T02:46:29.675Z,82.57
2022-11-22T02:48:58.034Z,97.78
2022-11-22T02:51:26.619Z,85.63
2022-11-22T02:53:56.903Z,89.55
2022-11-22T02:56:25.004Z,87.97
2022-11-22T02:58:54.757Z,99.85
2022-11-22T03:01:22.823Z,105.47
2022-11-22T03:03:51.172Z,110.95
2022-11-22T03:06:19.386Z,102.78
2022-11-22T03:08:53.149Z,104.00
2022-11-22T03:11:24.253Z,95.45
2022-11-22T03:13:54.069Z,98.65
2022-11-22T03:16:22.278Z,95.75
2022-11-22T03:18:50.669Z,94.72
2022-11-22T03:21:18.752Z,98.53
2022-11-22T03:23:47.074Z,86.50
2022-11-22T03:26:15.183Z,92.95
2022-11-22T03:28:43.427Z,93.35
2022-11-22T03:31:12.870Z,83.68
2022-11-22T03:33:41.216Z,105.15
2022-11-22T03:36:09.238Z,90.32
2022-11-22T03:38:37.643Z,92.85
2022-11-22T03:41:05.961Z,101.20
2022-11-22T03:43:34.482Z,104.63
2022-11-22T03:46:02.553Z,111.28
2022-11-22T03:48:32.533Z,108.85
2022-11-22T03:51:05.582Z,105.43
2022-11-22T03:53:34.627Z,104.63
2022-11-22T03:56:02.862Z,95.88
2022-11-22T03:58:31.222Z,100.25
2022-11-22T04:00:59.604Z,93.88
2022-11-22T04:03:28.088Z,98.90
2022-11-22T04:05:57.675Z,108.63
2022-11-22T04:08:26.159Z,101.00
2022-11-22T04:10:54.319Z,100.45
2022-11-22T04:13:42.857Z,103.32
2022-11-22T04:16:09.973Z,100.25
2022-11-22T04:18:38.377Z,98.65
2022-11-22T04:21:25.112Z,93.97
2022-11-22T04:24:07.632Z,100.40
2022-11-22T04:26:35.721Z,98.30
2022-11-22T04:29:11.323Z,82.97
2022-11-22T04:31:57.091Z,88.13
2022-11-22T04:34:25.368Z,89.20
2022-11-22T04:36:54.929Z,99.57
2022-11-22T04:39:23.345Z,111.55
2022-11-22T04:42:13.841Z,108.80
2022-11-22T04:44:41.905Z,100.05
2022-11-22T04:47:10.372Z,97.50
2022-11-22T04:49:39.034Z,88.72
2022-11-22T04:52:25.950Z,91.55
2022-11-22T04:54:54.238Z,89.35
2022-11-22T04:57:22.449Z,80.22
2022-11-22T04:59:50.895Z,93.63
2022-11-22T05:02:18.923Z,88.20
2022-11-22T05:04:50.655Z,90.40
2022-11-22T05:07:20.489Z,86.70
2022-11-22T05:09:48.861Z,93.75
2022-11-22T05:12:16.963Z,98.32
2022-11-22T05:14:45.335Z,95.07
2022-11-22T05:17:13.880Z,87.38
2022-11-22T05:19:47.819Z,83.97
2022-11-22T05:22:17.791Z,88.07
2022-11-22T05:24:46.673Z,90.90
2022-11-22T05:27:14.720Z,80.55
2022-11-22T05:29:43.167Z,86.57
2022-11-22T05:32:11.272Z,84.50
2022-11-22T05:34:39.708Z,80.80
2022-11-22T05:37:07.843Z,86.68
2022-11-22T05:39:36.433Z,78.70
2022-11-22T05:42:06.063Z,81.70
2022-11-22T05:44:34.480Z,76.53
2022-11-22T05:47:02.449Z,79.75
2022-11-22T05:49:31.168Z,76.30
2022-11-22T05:51:59.555Z,74.50
2022-11-22T05:54:28.042Z,74.57
2022-11-22T05:56:56.075Z,72.40
2022-11-22T05:59:25.885Z,76.68
2022-11-22T06:01:53.975Z,68.85
2022-11-22T06:04:22.551Z,76.18
2022-11-22T06:06:50.612Z,78.90
2022-11-22T06:09:19.001Z,80.50
2022-11-22T06:11:48.362Z,82.43
2022-11-22T06:14:16.660Z,80.28
2022-11-22T06:16:46.053Z,77.82
2022-11-22T06:19:14.417Z,75.75
2022-11-22T06:21:42.597Z,77.38
2022-11-22T06:24:11.425Z,78.60
2022-11-22T06:26:39.833Z,84.55
2022-11-22T06:29:08.266Z,74.53
2022-11-22T06:31:37.147Z,78.97
2022-11-22T06:34:06.952Z,73.18
2022-11-22T06:36:36.450Z,74.50
2022-11-22T06:39:05.491Z,73.53
2022-11-22T06:41:35.036Z,67.80
2022-11-22T06:44:06.537Z,78.75
2022-11-22T06:49:03.385Z,76.03
2022-11-22T06:51:33.323Z,76.57
2022-11-22T06:54:02.176Z,77.88
2022-11-22T06:56:31.731Z,76.07
2022-11-22T06:59:03.134Z,78.53
2022-11-22T07:01:32.225Z,73.47
2022-11-22T07:04:01.471Z,81.70
2022-11-22T07:06:31.218Z,80.35
2022-11-22T07:09:01.620Z,71.28
2022-11-22T07:11:31.296Z,119.25
2022-11-22T07:14:07.074Z,106.10
2022-11-22T07:16:37.683Z,93.93
2022-11-22T07:19:06.081Z,120.47
2022-11-22T07:21:34.319Z,113.47
2022-11-22T07:24:05.622Z,127.50
2022-11-22T07:26:34.046Z,118.63
2022-11-22T07:29:02.384Z,75.15
2022-11-22T07:31:30.633Z,86.35
2022-11-22T07:33:59.000Z,60.90
2022-11-22T07:36:29.643Z,65.18
2022-11-22T07:38:58.253Z,62.90
2022-11-22T07:41:27.760Z,65.97
2022-11-22T07:43:56.022Z,54.97
2022-11-22T07:46:26.455Z,56.95
2022-11-22T07:48:54.597Z,53.80
2022-11-22T07:51:22.951Z,53.40
2022-11-22T07:53:51.054Z,56.33
2022-11-22T07:56:19.841Z,50.53
2022-11-22T07:58:49.463Z,52.58
2022-11-22T08:01:19.299Z,52.47
2022-11-22T08:03:47.587Z,48.65
2022-11-22T08:06:16.816Z,48.20
2022-11-22T08:08:44.954Z,44.78
2022-11-22T08:11:13.820Z,45.92
2022-11-22T08:13:42.560Z,45.40
2022-11-22T08:16:14.013Z,47.08
2022-11-22T08:18:43.280Z,48.60
2022-11-22T08:21:14.505Z,48.13
2022-11-22T08:23:43.531Z,46.60
2022-11-22T08:26:13.417Z,42.47
2022-11-22T08:28:42.219Z,51.88
2022-11-22T08:31:13.936Z,42.70
2022-11-22T08:36:10.563Z,42.55
2022-11-22T08:38:38.883Z,43.75
2022-11-22T08:41:07.757Z,38.33
2022-11-22T08:43:35.914Z,44.75
2022-11-22T08:46:04.762Z,47.15
2022-11-22T08:48:35.803Z,50.40
2022-11-22T08:53:33.848Z,46.97
2022-11-22T08:56:03.074Z,48.88
2022-11-22T08:58:31.296Z,52.30
2022-11-22T09:01:05.427Z,50.65
2022-11-22T09:03:35.735Z,48.15
2022-11-22T09:09:08.603Z,45.05
2022-11-22T09:11:41.882Z,40.22
2022-11-22T09:14:10.235Z,43.13
2022-11-22T09:16:38.668Z,44.58
2022-11-22T09:19:08.206Z,43.47
2022-11-22T09:21:36.827Z,43.22
2022-11-22T09:24:05.394Z,39.17
2022-11-22T09:26:33.764Z,71.45
2022-11-22T09:29:01.846Z,48.75
2022-11-22T09:31:32.457Z,39.85
2022-11-22T09:34:00.975Z,37.85
2022-11-22T09:36:31.028Z,33.90
2022-11-22T09:38:59.675Z,32.08
2022-11-22T09:42:05.564Z,42.60
2022-11-22T09:44:43.343Z,38.20
2022-11-22T09:47:20.257Z,34.50
2022-11-22T09:49:54.696Z,38.40
2022-11-22T09:52:28.706Z,38.97
2022-11-22T09:54:58.710Z,33.22
2022-11-22T09:57:29.596Z,48.80
2022-11-22T10:00:05.163Z,42.13
2022-11-22T10:02:58.839Z,32.58
2022-11-22T10:05:27.882Z,35.83
2022-11-22T10:08:02.740Z,29.20
2022-11-22T10:10:35.778Z,26.70
2022-11-22T10:13:07.510Z,22.40
2022-11-22T10:15:42.960Z,21.65
2022-11-22T10:18:17.413Z,21.73
2022-11-22T10:20:48.812Z,23.00
2022-11-22T10:23:22.109Z,20.08
2022-11-22T10:25:56.135Z,19.00
2022-11-22T10:28:30.997Z,20.02
2022-11-22T10:31:03.690Z,15.98
2022-11-22T10:33:42.853Z,12.90
2022-11-22T10:36:25.426Z,18.77
2022-11-22T10:41:48.200Z,14.05
2022-11-22T10:44:24.968Z,13.77
2022-11-22T10:46:58.599Z,12.98
2022-11-22T10:49:37.924Z,12.77
2022-11-22T10:52:13.732Z,12.30
2022-11-22T10:54:50.224Z,17.25
2022-11-22T10:57:24.408Z,26.20
2022-11-22T10:59:59.623Z,13.82
2022-11-22T11:03:00.797Z,9.82
2022-11-22T11:05:33.576Z,12.05
2022-11-22T11:08:22.158Z,13.35
2022-11-22T11:10:51.921Z,11.82
2022-11-22T11:13:23.442Z,9.95
2022-11-22T11:15:56.200Z,10.18
2022-11-22T11:18:28.807Z,11.30
2022-11-22T11:20:57.164Z,37.75
2022-11-22T11:23:25.409Z,50.92
2022-11-22T11:25:55.251Z,14.45
2022-11-22T11:28:25.848Z,11.80
2022-11-22T11:30:56.433Z,9.77
2022-11-22T11:33:30.035Z,11.82
2022-11-22T11:36:04.043Z,11.48
2022-11-22T11:38:34.672Z,10.13
2022-11-22T11:41:23.557Z,15.00
2022-11-22T11:43:52.717Z,11.50
2022-11-22T11:46:22.925Z,13.05
2022-11-22T11:48:51.865Z,19.25
2022-11-22T11:51:24.140Z,16.42
2022-11-22T11:54:01.756Z,10.07
2022-11-22T11:56:34.745Z,12.35
2022-11-22T11:59:08.368Z,9.52
2022-11-22T12:01:39.012Z,11.77
2022-11-22T12:04:08.419Z,9.82
2022-11-22T12:06:36.715Z,11.57
2022-11-22T12:09:29.041Z,11.70
2022-11-22T12:12:02.476Z,15.63
2022-11-22T12:14:55.469Z,20.35
2022-11-22T12:17:25.208Z,18.95
2022-11-22T12:20:00.199Z,15.32
2022-11-22T12:22:50.814Z,13.48
2022-11-22T12:25:34.739Z,12.27
2022-11-22T12:28:17.432Z,16.92
2022-11-22T12:30:46.702Z,22.30
2022-11-22T12:33:19.361Z,27.25
2022-11-22T12:35:48.685Z,17.90
2022-11-22T12:38:19.342Z,18.00
2022-11-22T12:40:49.613Z,41.37
2022-11-22T12:43:23.885Z,49.00
2022-11-22T12:45:54.035Z,22.15
2022-11-22T12:48:24.407Z,14.27
2022-11-22T12:50:54.726Z,12.88
2022-11-22T12:53:26.123Z,22.60
2022-11-22T12:55:59.716Z,17.55
2022-11-22T12:58:34.861Z,17.70
2022-11-22T13:01:10.111Z,22.15
2022-11-22T13:03:41.256Z,25.23
2022-11-22T13:06:10.314Z,25.02
2022-11-22T13:08:42.490Z,29.35
2022-11-22T13:11:16.387Z,29.13
2022-11-22T13:13:49.191Z,24.60
2022-11-22T13:16:18.283Z,18.70
2022-11-22T13:18:49.620Z,20.98
2022-11-22T13:21:24.066Z,30.20
2022-11-22T13:24:10.135Z,28.05
2022-11-22T13:26:44.325Z,42.75
2022-11-22T13:29:23.343Z,22.88
2022-11-22T13:32:06.059Z,17.02
2022-11-22T13:34:36.266Z,29.73
2022-11-22T13:37:09.735Z,25.77
2022-11-22T13:39:43.791Z,22.40
2022-11-22T13:42:15.365Z,31.35
2022-11-22T13:44:53.725Z,19.77
2022-11-22T13:47:39.649Z,29.27
2022-11-22T13:50:53.613Z,23.58
2022-11-22T13:53:25.839Z,28.10
2022-11-22T13:55:54.286Z,17.67
2022-11-22T13:58:55.198Z,23.63
2022-11-22T14:01:56.379Z,22.60
2022-11-22T14:04:36.513Z,26.40
2022-11-22T14:07:07.532Z,35.10
2022-11-22T14:09:39.432Z,20.92
2022-11-22T14:12:25.082Z,29.20
2022-11-22T14:15:11.086Z,21.13
2022-11-22T14:17:44.828Z,18.55
2022-11-22T14:20:29.141Z,26.80
2022-11-22T14:23:01.264Z,20.98
2022-11-22T14:25:48.710Z,20.77
2022-11-22T14:28:30.537Z,23.70
2022-11-22T14:30:58.998Z,20.80
2022-11-22T14:33:28.630Z,26.17
2022-11-22T14:36:17.737Z,24.35
2022-11-22T14:38:46.418Z,23.48
2022-11-22T14:41:43.518Z,28.50
2022-11-22T14:44:16.208Z,32.70
2022-11-22T14:46:55.774Z,30.75
2022-11-22T14:49:33.216Z,27.90
2022-11-22T14:52:03.174Z,28.88
2022-11-22T14:54:39.034Z,33.70
2022-11-22T14:57:08.448Z,28.50
2022-11-22T14:59:57.171Z,31.33
2022-11-22T15:03:03.631Z,28.25
2022-11-22T15:09:12.288Z,32.28
2022-11-22T15:09:23.220Z,29.05
2022-11-22T15:11:40.952Z,34.95
2022-11-22T15:14:25.805Z,44.42
2022-11-22T15:57:28.687Z,56.92
2022-11-22T15:59:58.632Z,54.03
2022-11-22T16:02:31.118Z,46.72
2022-11-22T16:06:04.368Z,63.70
2022-11-22T16:07:52.521Z,58.43
2022-11-22T16:10:22.348Z,76.13
2022-11-22T16:12:51.356Z,64.45
2022-11-22T16:15:25.564Z,67.07
2022-11-22T16:17:59.399Z,64.78
2022-11-22T16:20:33.894Z,61.58
2022-11-22T16:23:15.998Z,63.13
2022-11-22T16:25:45.643Z,53.33
2022-11-22T16:28:35.392Z,57.97
2022-11-22T16:31:07.604Z,61.90
2022-11-22T16:33:36.092Z,61.45
2022-11-22T16:36:07.061Z,69.75
2022-11-22T16:38:35.553Z,52.78
2022-11-22T16:41:03.729Z,62.40
2022-11-22T16:43:35.681Z,68.28
2022-11-22T16:46:05.183Z,58.05
2022-11-22T16:48:33.925Z,56.83
2022-11-22T16:51:07.045Z,56.17
2022-11-22T16:53:42.171Z,52.28
2022-11-22T16:56:16.589Z,53.55
2022-11-22T16:58:45.316Z,52.75
2022-11-22T17:01:16.253Z,56.38
2022-11-22T17:06:18.745Z,56.25
2022-11-22T17:08:47.544Z,47.15
2022-11-22T17:11:17.313Z,53.28
2022-11-22T17:13:46.294Z,52.33
2022-11-22T17:16:17.818Z,49.70
2022-11-22T17:18:47.707Z,49.45
2022-11-22T17:21:19.290Z,63.92
2022-11-22T17:23:47.711Z,57.40
2022-11-22T17:26:15.878Z,57.47
2022-11-22T17:28:44.373Z,55.10
2022-11-22T17:31:13.856Z,54.50
2022-11-22T17:33:43.756Z,50.35
2022-11-22T17:36:21.361Z,53.72
2022-11-22T17:38:49.719Z,53.42
2022-11-22T17:41:17.987Z,54.40
2022-11-22T17:43:46.410Z,55.65
2022-11-22T17:46:15.203Z,51.55
2022-11-22T17:48:45.096Z,61.75
2022-11-22T17:51:14.243Z,51.83
2022-11-22T17:53:42.718Z,72.07
2022-11-22T17:56:11.634Z,65.28
2022-11-22T17:58:40.586Z,85.95
2022-11-22T18:01:10.709Z,68.88
2022-11-22T18:03:39.665Z,57.37
2022-11-22T18:06:10.436Z,59.25
2022-11-22T18:08:45.220Z,59.20
2022-11-22T18:11:15.267Z,53.13
2022-11-22T18:13:43.901Z,41.83
2022-11-22T18:16:14.536Z,43.63
2022-11-22T18:18:58.651Z,51.22
2022-11-22T18:21:30.220Z,54.50
2022-11-22T18:23:59.353Z,78.40
2022-11-22T18:26:43.139Z,59.25
2022-11-22T18:32:01.080Z,62.33
2022-11-22T18:34:30.750Z,58.33
2022-11-22T18:37:03.631Z,55.95
2022-11-22T18:39:35.283Z,54.45
2022-11-22T18:42:04.161Z,50.70
2022-11-22T18:44:32.596Z,56.75
2022-11-22T18:47:00.794Z,50.45
2022-11-22T18:49:29.795Z,58.08
2022-11-22T18:51:58.341Z,64.15
2022-11-22T18:54:28.144Z,50.17
2022-11-22T18:56:56.231Z,59.88
2022-11-22T18:59:24.649Z,52.20
2022-11-22T19:01:52.850Z,64.15
2022-11-22T19:04:21.241Z,53.10
2022-11-22T19:06:49.370Z,48.88
2022-11-22T19:09:17.661Z,51.72
2022-11-22T19:11:47.372Z,54.70
2022-11-22T19:14:15.728Z,52.38
2022-11-22T19:16:44.130Z,45.00
2022-11-22T19:19:13.182Z,48.38
2022-11-22T19:21:41.537Z,49.53
2022-11-22T19:24:10.060Z,51.60
2022-11-22T19:26:38.569Z,51.85
2022-11-22T19:29:08.859Z,52.10
2022-11-22T19:31:37.393Z,53.30
2022-11-22T19:34:05.884Z,54.88
2022-11-22T19:36:36.354Z,57.47
2022-11-22T19:39:05.607Z,58.78
2022-11-22T19:41:34.266Z,55.60
2022-11-22T19:44:03.188Z,61.92
2022-11-22T19:46:33.205Z,63.05
2022-11-22T19:49:02.503Z,55.08
2022-11-22T19:51:32.043Z,64.75
2022-11-22T19:54:02.301Z,57.90
2022-11-22T19:56:32.893Z,62.08
2022-11-22T19:59:02.759Z,50.75
2022-11-22T20:01:34.823Z,69.68
2022-11-22T20:04:07.726Z,58.33
2022-11-22T20:06:38.390Z,64.55
2022-11-22T20:09:09.285Z,58.25
2022-11-22T20:11:38.188Z,55.60
2022-11-22T20:14:06.628Z,63.25
2022-11-22T20:16:37.563Z,58.72
2022-11-22T20:19:07.077Z,64.43
2022-11-22T20:21:36.672Z,61.25
2022-11-22T20:24:06.267Z,67.82
2022-11-22T20:26:35.021Z,67.07
2022-11-22T20:29:05.089Z,68.10
2022-11-22T20:31:35.048Z,57.40
2022-11-22T20:34:04.775Z,119.65
2022-11-22T20:36:35.150Z,75.90
2022-11-22T20:39:08.589Z,66.03
2022-11-22T20:41:39.135Z,98.03
2022-11-22T20:44:07.589Z,53.53
2022-11-22T20:46:37.894Z,72.78
2022-11-22T20:49:07.994Z,78.38
2022-11-22T20:51:39.656Z,70.80
2022-11-22T20:54:08.130Z,56.15
2022-11-22T20:56:36.774Z,54.92
2022-11-22T20:59:05.090Z,65.85
2022-11-22T21:01:33.688Z,50.65
2022-11-22T21:04:02.060Z,58.70
2022-11-22T21:06:32.938Z,61.72
2022-11-22T21:09:01.130Z,53.95
2022-11-22T21:11:31.062Z,56.25
2022-11-22T21:13:59.593Z,63.67
2022-11-22T21:16:29.616Z,67.40
2022-11-22T21:18:59.467Z,55.65
2022-11-22T21:21:28.497Z,60.47
2022-11-22T21:24:00.940Z,61.17
2022-11-22T21:26:29.908Z,50.88
2022-11-22T21:28:59.483Z,48.78
2022-11-22T21:31:28.572Z,58.25
2022-11-22T21:33:56.797Z,61.72
2022-11-22T21:36:25.261Z,56.90
2022-11-22T21:38:53.327Z,63.80
2022-11-22T21:41:39.407Z,56.28
2022-11-22T21:44:08.966Z,61.53
2022-11-22T21:46:37.438Z,57.20
2022-11-22T21:49:05.585Z,56.10
2022-11-22T21:51:33.985Z,53.60
2022-11-22T21:54:03.131Z,70.65
2022-11-22T21:56:33.153Z,52.72
2022-11-22T21:59:01.379Z,50.75
2022-11-22T22:01:30.089Z,51.65
2022-11-22T22:03:58.342Z,53.55
2022-11-22T22:06:26.832Z,62.10
2022-11-22T22:08:55.198Z,52.08
2022-11-22T22:11:23.794Z,57.60
2022-11-22T22:13:55.306Z,60.17
2022-11-22T22:16:26.090Z,60.20
2022-11-22T22:18:54.614Z,68.82
2022-11-22T22:21:23.229Z,74.15
2022-11-22T22:23:51.415Z,66.65
2022-11-22T22:26:19.979Z,70.60
2022-11-22T22:28:48.186Z,74.55
2022-11-22T22:31:21.968Z,69.93
2022-11-22T22:33:51.500Z,71.30
2022-11-22T22:36:20.356Z,68.93
2022-11-22T22:38:48.740Z,74.03
2022-11-22T22:41:17.642Z,71.30
2022-11-22T22:43:48.723Z,72.97
2022-11-22T22:48:48.017Z,72.78
2022-11-22T22:51:18.144Z,76.22
2022-11-22T22:53:47.035Z,75.20
2022-11-22T22:56:17.708Z,72.85
2022-11-22T22:58:46.095Z,70.70
2022-11-22T23:01:15.991Z,65.70
2022-11-22T23:03:48.523Z,62.88
2022-11-22T23:06:17.450Z,63.65
2022-11-22T23:08:47.251Z,65.03
2022-11-22T23:11:16.405Z,56.92
2022-11-22T23:13:44.930Z,56.90
2022-11-22T23:16:14.802Z,54.20
2022-11-22T23:18:45.907Z,57.10
2022-11-22T23:21:15.757Z,58.22
2022-11-22T23:23:44.000Z,60.20
2022-11-22T23:26:13.945Z,66.78
2022-11-22T23:28:42.270Z,59.10
2022-11-22T23:31:15.484Z,66.15
2022-11-22T23:33:45.768Z,73.22
2022-11-22T23:36:15.864Z,63.97
2022-11-22T23:38:44.442Z,64.82
2022-11-22T23:41:13.576Z,68.65
2022-11-22T23:43:42.545Z,64.95
2022-11-22T23:46:16.199Z,65.60
2022-11-22T23:48:46.399Z,67.55
2022-11-22T23:51:15.684Z,64.87
2022-11-22T23:53:43.855Z,70.60
2022-11-22T23:56:18.992Z,66.28
2022-11-22T23:58:49.967Z,65.90
